sensor_id;sensor_type;location;lat;lon;timestamp;temperature;humidity
64855;DHT22;51321;50.428;8.378;2023-06-26T00:01:17;18.80;99.90
64855;DHT22;51321;50.428;8.378;2023-06-26T00:03:59;18.70;99.90
64855;DHT22;51321;50.428;8.378;2023-06-26T00:06:41;18.60;99.90
64855;DHT22;51321;50.428;8.378;2023-06-26T00:09:21;18.50;99.90
64855;DHT22;51321;50.428;8.378;2023-06-26T00:12:02;18.60;99.90
64855;DHT22;51321;50.428;8.378;2023-06-26T00:14:44;18.60;99.90
64855;DHT22;51321;50.428;8.378;2023-06-26T00:17:25;18.60;99.90
64855;DHT22;51321;50.428;8.378;2023-06-26T00:20:07;18.50;99.90
64855;DHT22;51321;50.428;8.378;2023-06-26T00:22:52;18.50;99.90
64855;DHT22;51321;50.428;8.378;2023-06-26T00:25:34;18.40;99.90
64855;DHT22;51321;50.428;8.378;2023-06-26T00:28:14;18.40;99.90
64855;DHT22;51321;50.428;8.378;2023-06-26T00:30:56;18.10;99.90
64855;DHT22;51321;50.428;8.378;2023-06-26T00:33:37;18.10;99.90
64855;DHT22;51321;50.428;8.378;2023-06-26T00:36:17;18.10;99.90
64855;DHT22;51321;50.428;8.378;2023-06-26T00:38:57;18.10;99.90
64855;DHT22;51321;50.428;8.378;2023-06-26T00:41:38;18.00;99.90
64855;DHT22;51321;50.428;8.378;2023-06-26T00:44:19;17.90;99.90
64855;DHT22;51321;50.428;8.378;2023-06-26T00:47:01;17.80;99.90
64855;DHT22;51321;50.428;8.378;2023-06-26T00:49:41;17.90;99.90
64855;DHT22;51321;50.428;8.378;2023-06-26T00:52:22;17.90;99.90
64855;DHT22;51321;50.428;8.378;2023-06-26T00:55:04;17.90;99.90
64855;DHT22;51321;50.428;8.378;2023-06-26T00:57:45;17.80;99.90
64855;DHT22;51321;50.428;8.378;2023-06-26T01:00:26;17.80;99.90
64855;DHT22;51321;50.428;8.378;2023-06-26T01:03:08;17.80;99.90
64855;DHT22;51321;50.428;8.378;2023-06-26T01:05:50;17.80;99.90
64855;DHT22;51321;50.428;8.378;2023-06-26T01:08:32;17.70;99.90
64855;DHT22;51321;50.428;8.378;2023-06-26T01:11:13;17.70;99.90
64855;DHT22;51321;50.428;8.378;2023-06-26T01:13:54;17.90;99.90
64855;DHT22;51321;50.428;8.378;2023-06-26T01:16:37;18.10;99.90
64855;DHT22;51321;50.428;8.378;2023-06-26T01:19:24;18.00;99.90
64855;DHT22;51321;50.428;8.378;2023-06-26T01:22:15;17.60;99.90
64855;DHT22;51321;50.428;8.378;2023-06-26T01:25:03;17.50;99.90
64855;DHT22;51321;50.428;8.378;2023-06-26T01:27:50;17.40;99.90
64855;DHT22;51321;50.428;8.378;2023-06-26T01:30:34;17.30;99.90
64855;DHT22;51321;50.428;8.378;2023-06-26T01:33:17;17.30;99.90
64855;DHT22;51321;50.428;8.378;2023-06-26T01:35:58;17.20;99.90
64855;DHT22;51321;50.428;8.378;2023-06-26T01:38:41;17.10;99.90
64855;DHT22;51321;50.428;8.378;2023-06-26T01:41:21;17.00;99.90
64855;DHT22;51321;50.428;8.378;2023-06-26T01:44:13;17.10;99.90
64855;DHT22;51321;50.428;8.378;2023-06-26T01:47:00;17.10;99.90
64855;DHT22;51321;50.428;8.378;2023-06-26T01:49:47;17.10;99.90
64855;DHT22;51321;50.428;8.378;2023-06-26T01:52:37;17.30;99.90
64855;DHT22;51321;50.428;8.378;2023-06-26T01:55:26;17.30;99.90
64855;DHT22;51321;50.428;8.378;2023-06-26T01:58:09;17.20;99.90
64855;DHT22;51321;50.428;8.378;2023-06-26T02:00:51;17.20;99.90
64855;DHT22;51321;50.428;8.378;2023-06-26T02:03:33;17.20;99.90
64855;DHT22;51321;50.428;8.378;2023-06-26T02:06:13;17.20;99.90
64855;DHT22;51321;50.428;8.378;2023-06-26T02:08:54;17.00;99.90
64855;DHT22;51321;50.428;8.378;2023-06-26T02:11:35;17.00;99.90
64855;DHT22;51321;50.428;8.378;2023-06-26T02:14:16;16.80;99.90
64855;DHT22;51321;50.428;8.378;2023-06-26T02:16:58;16.70;99.90
64855;DHT22;51321;50.428;8.378;2023-06-26T02:19:39;16.70;99.90
64855;DHT22;51321;50.428;8.378;2023-06-26T02:22:26;16.80;99.90
64855;DHT22;51321;50.428;8.378;2023-06-26T02:25:08;16.70;99.90
64855;DHT22;51321;50.428;8.378;2023-06-26T02:27:49;16.60;99.90
64855;DHT22;51321;50.428;8.378;2023-06-26T02:30:32;16.50;99.90
64855;DHT22;51321;50.428;8.378;2023-06-26T02:33:14;16.50;99.90
64855;DHT22;51321;50.428;8.378;2023-06-26T02:35:55;16.50;99.90
64855;DHT22;51321;50.428;8.378;2023-06-26T02:38:35;16.60;99.90
64855;DHT22;51321;50.428;8.378;2023-06-26T02:41:16;16.60;99.90
64855;DHT22;51321;50.428;8.378;2023-06-26T02:43:58;16.60;99.90
64855;DHT22;51321;50.428;8.378;2023-06-26T02:46:39;16.70;99.90
64855;DHT22;51321;50.428;8.378;2023-06-26T02:49:22;16.60;99.90
64855;DHT22;51321;50.428;8.378;2023-06-26T02:52:03;16.50;99.90
64855;DHT22;51321;50.428;8.378;2023-06-26T02:54:44;16.60;99.90
64855;DHT22;51321;50.428;8.378;2023-06-26T02:57:26;16.60;99.90
64855;DHT22;51321;50.428;8.378;2023-06-26T03:00:08;16.60;99.90
64855;DHT22;51321;50.428;8.378;2023-06-26T03:02:56;16.40;99.90
64855;DHT22;51321;50.428;8.378;2023-06-26T03:05:38;16.20;99.90
64855;DHT22;51321;50.428;8.378;2023-06-26T03:08:18;16.10;99.90
64855;DHT22;51321;50.428;8.378;2023-06-26T03:10:59;16.00;99.90
64855;DHT22;51321;50.428;8.378;2023-06-26T03:13:40;15.90;99.90
64855;DHT22;51321;50.428;8.378;2023-06-26T03:16:21;15.90;99.90
64855;DHT22;51321;50.428;8.378;2023-06-26T03:19:01;15.80;99.90
64855;DHT22;51321;50.428;8.378;2023-06-26T03:21:45;15.90;99.90
64855;DHT22;51321;50.428;8.378;2023-06-26T03:24:25;16.00;99.90
64855;DHT22;51321;50.428;8.378;2023-06-26T03:27:06;16.20;99.90
64855;DHT22;51321;50.428;8.378;2023-06-26T03:29:49;16.20;99.90
64855;DHT22;51321;50.428;8.378;2023-06-26T03:32:30;16.40;99.90
64855;DHT22;51321;50.428;8.378;2023-06-26T03:35:11;16.60;99.90
64855;DHT22;51321;50.428;8.378;2023-06-26T03:37:53;16.70;99.90
64855;DHT22;51321;50.428;8.378;2023-06-26T03:40:34;16.80;99.90
64855;DHT22;51321;50.428;8.378;2023-06-26T03:43:14;16.90;99.90
64855;DHT22;51321;50.428;8.378;2023-06-26T03:46:00;16.90;99.90
64855;DHT22;51321;50.428;8.378;2023-06-26T03:48:40;16.80;99.90
64855;DHT22;51321;50.428;8.378;2023-06-26T03:51:21;16.90;99.90
64855;DHT22;51321;50.428;8.378;2023-06-26T03:54:03;16.80;99.90
64855;DHT22;51321;50.428;8.378;2023-06-26T03:56:44;17.00;99.90
64855;DHT22;51321;50.428;8.378;2023-06-26T03:59:25;17.40;99.90
64855;DHT22;51321;50.428;8.378;2023-06-26T04:02:05;17.70;99.90
64855;DHT22;51321;50.428;8.378;2023-06-26T04:04:46;17.80;99.90
64855;DHT22;51321;50.428;8.378;2023-06-26T04:07:27;17.80;99.90
64855;DHT22;51321;50.428;8.378;2023-06-26T04:10:09;18.00;99.90
64855;DHT22;51321;50.428;8.378;2023-06-26T04:12:50;17.90;99.90
64855;DHT22;51321;50.428;8.378;2023-06-26T04:15:31;18.00;99.90
64855;DHT22;51321;50.428;8.378;2023-06-26T04:18:11;18.10;99.90
64855;DHT22;51321;50.428;8.378;2023-06-26T04:21:06;18.10;99.90
64855;DHT22;51321;50.428;8.378;2023-06-26T04:23:47;18.10;99.90
64855;DHT22;51321;50.428;8.378;2023-06-26T04:26:29;18.00;99.90
64855;DHT22;51321;50.428;8.378;2023-06-26T04:29:09;18.10;99.90
64855;DHT22;51321;50.428;8.378;2023-06-26T04:31:50;18.20;99.90
64855;DHT22;51321;50.428;8.378;2023-06-26T04:34:30;18.30;99.90
64855;DHT22;51321;50.428;8.378;2023-06-26T04:37:14;18.40;99.90
64855;DHT22;51321;50.428;8.378;2023-06-26T04:39:56;18.30;99.90
64855;DHT22;51321;50.428;8.378;2023-06-26T04:42:38;18.50;99.90
64855;DHT22;51321;50.428;8.378;2023-06-26T04:45:19;18.60;99.90
64855;DHT22;51321;50.428;8.378;2023-06-26T04:47:59;18.60;99.90
64855;DHT22;51321;50.428;8.378;2023-06-26T04:50:40;18.40;99.90
64855;DHT22;51321;50.428;8.378;2023-06-26T04:53:21;18.30;99.90
64855;DHT22;51321;50.428;8.378;2023-06-26T04:56:02;18.60;99.90
64855;DHT22;51321;50.428;8.378;2023-06-26T04:58:43;18.60;99.90
64855;DHT22;51321;50.428;8.378;2023-06-26T05:01:24;18.70;99.90
64855;DHT22;51321;50.428;8.378;2023-06-26T05:04:04;18.80;99.90
64855;DHT22;51321;50.428;8.378;2023-06-26T05:06:45;18.90;99.90
64855;DHT22;51321;50.428;8.378;2023-06-26T05:09:25;18.80;99.90
64855;DHT22;51321;50.428;8.378;2023-06-26T05:12:06;18.90;99.90
64855;DHT22;51321;50.428;8.378;2023-06-26T05:14:49;18.90;99.90
64855;DHT22;51321;50.428;8.378;2023-06-26T05:17:29;19.10;99.90
64855;DHT22;51321;50.428;8.378;2023-06-26T05:20:11;19.40;99.90
64855;DHT22;51321;50.428;8.378;2023-06-26T05:22:52;19.40;99.90
64855;DHT22;51321;50.428;8.378;2023-06-26T05:25:33;19.40;99.90
64855;DHT22;51321;50.428;8.378;2023-06-26T05:28:14;19.40;99.90
64855;DHT22;51321;50.428;8.378;2023-06-26T05:30:57;19.50;99.90
64855;DHT22;51321;50.428;8.378;2023-06-26T05:33:38;19.70;99.90
64855;DHT22;51321;50.428;8.378;2023-06-26T05:36:20;19.90;99.90
64855;DHT22;51321;50.428;8.378;2023-06-26T05:39:03;19.90;99.90
64855;DHT22;51321;50.428;8.378;2023-06-26T05:41:45;20.00;99.90
64855;DHT22;51321;50.428;8.378;2023-06-26T05:44:26;20.20;99.90
64855;DHT22;51321;50.428;8.378;2023-06-26T05:47:08;20.30;99.90
64855;DHT22;51321;50.428;8.378;2023-06-26T05:49:48;20.40;99.90
64855;DHT22;51321;50.428;8.378;2023-06-26T05:52:30;20.60;99.90
64855;DHT22;51321;50.428;8.378;2023-06-26T05:55:12;20.70;99.90
64855;DHT22;51321;50.428;8.378;2023-06-26T05:57:53;20.80;99.90
64855;DHT22;51321;50.428;8.378;2023-06-26T06:00:34;20.90;99.90
64855;DHT22;51321;50.428;8.378;2023-06-26T06:03:16;21.00;99.90
64855;DHT22;51321;50.428;8.378;2023-06-26T06:05:57;21.20;99.90
64855;DHT22;51321;50.428;8.378;2023-06-26T06:08:38;21.20;99.90
64855;DHT22;51321;50.428;8.378;2023-06-26T06:11:18;21.50;99.90
64855;DHT22;51321;50.428;8.378;2023-06-26T06:13:59;21.60;99.90
64855;DHT22;51321;50.428;8.378;2023-06-26T06:16:39;21.80;99.90
64855;DHT22;51321;50.428;8.378;2023-06-26T06:19:22;21.80;99.90
64855;DHT22;51321;50.428;8.378;2023-06-26T06:22:03;21.80;99.90
64855;DHT22;51321;50.428;8.378;2023-06-26T06:24:43;21.80;99.90
64855;DHT22;51321;50.428;8.378;2023-06-26T06:27:24;22.10;99.90
64855;DHT22;51321;50.428;8.378;2023-06-26T06:30:06;22.20;99.80
64855;DHT22;51321;50.428;8.378;2023-06-26T06:32:47;22.40;99.30
64855;DHT22;51321;50.428;8.378;2023-06-26T06:35:31;22.60;99.70
64855;DHT22;51321;50.428;8.378;2023-06-26T06:38:12;22.80;99.40
64855;DHT22;51321;50.428;8.378;2023-06-26T06:40:52;23.00;98.40
64855;DHT22;51321;50.428;8.378;2023-06-26T06:43:33;23.20;98.20
64855;DHT22;51321;50.428;8.378;2023-06-26T06:46:13;23.30;98.10
64855;DHT22;51321;50.428;8.378;2023-06-26T06:48:54;23.30;98.40
64855;DHT22;51321;50.428;8.378;2023-06-26T06:51:36;23.40;98.30
64855;DHT22;51321;50.428;8.378;2023-06-26T06:54:17;23.60;98.20
64855;DHT22;51321;50.428;8.378;2023-06-26T06:56:58;23.60;98.40
64855;DHT22;51321;50.428;8.378;2023-06-26T06:59:39;23.90;98.60
64855;DHT22;51321;50.428;8.378;2023-06-26T07:02:20;24.10;98.30
64855;DHT22;51321;50.428;8.378;2023-06-26T07:05:00;24.20;98.20
64855;DHT22;51321;50.428;8.378;2023-06-26T07:07:43;24.20;98.60
64855;DHT22;51321;50.428;8.378;2023-06-26T07:10:24;24.40;98.00
64855;DHT22;51321;50.428;8.378;2023-06-26T07:13:04;24.60;98.10
64855;DHT22;51321;50.428;8.378;2023-06-26T07:15:45;25.00;97.70
64855;DHT22;51321;50.428;8.378;2023-06-26T07:18:27;25.30;97.20
64855;DHT22;51321;50.428;8.378;2023-06-26T07:21:09;25.40;94.00
64855;DHT22;51321;50.428;8.378;2023-06-26T07:23:51;25.50;94.60
64855;DHT22;51321;50.428;8.378;2023-06-26T07:26:32;25.70;92.70
64855;DHT22;51321;50.428;8.378;2023-06-26T07:29:13;25.90;92.30
64855;DHT22;51321;50.428;8.378;2023-06-26T07:31:53;25.70;92.30
64855;DHT22;51321;50.428;8.378;2023-06-26T07:34:34;25.60;92.20
64855;DHT22;51321;50.428;8.378;2023-06-26T07:37:14;25.60;92.00
64855;DHT22;51321;50.428;8.378;2023-06-26T07:39:56;25.80;92.00
64855;DHT22;51321;50.428;8.378;2023-06-26T07:42:37;26.00;91.70
64855;DHT22;51321;50.428;8.378;2023-06-26T07:45:19;26.20;91.80
64855;DHT22;51321;50.428;8.378;2023-06-26T07:47:59;26.50;91.70
64855;DHT22;51321;50.428;8.378;2023-06-26T07:50:40;26.70;92.00
64855;DHT22;51321;50.428;8.378;2023-06-26T07:53:20;26.80;91.60
64855;DHT22;51321;50.428;8.378;2023-06-26T07:56:04;26.70;92.20
64855;DHT22;51321;50.428;8.378;2023-06-26T07:58:44;26.60;92.60
64855;DHT22;51321;50.428;8.378;2023-06-26T08:01:25;26.50;92.30
64855;DHT22;51321;50.428;8.378;2023-06-26T08:04:05;26.20;93.10
64855;DHT22;51321;50.428;8.378;2023-06-26T08:06:48;25.80;93.40
64855;DHT22;51321;50.428;8.378;2023-06-26T08:09:30;25.60;94.20
64855;DHT22;51321;50.428;8.378;2023-06-26T08:12:12;25.30;94.80
64855;DHT22;51321;50.428;8.378;2023-06-26T08:14:53;25.20;95.40
64855;DHT22;51321;50.428;8.378;2023-06-26T08:17:34;25.60;95.50
64855;DHT22;51321;50.428;8.378;2023-06-26T08:20:15;26.10;95.70
64855;DHT22;51321;50.428;8.378;2023-06-26T08:22:55;26.50;94.30
64855;DHT22;51321;50.428;8.378;2023-06-26T08:25:36;26.80;94.50
64855;DHT22;51321;50.428;8.378;2023-06-26T08:28:17;27.10;93.50
64855;DHT22;51321;50.428;8.378;2023-06-26T08:30:58;27.10;93.20
64855;DHT22;51321;50.428;8.378;2023-06-26T08:33:39;27.10;92.80
64855;DHT22;51321;50.428;8.378;2023-06-26T08:36:19;27.20;93.30
64855;DHT22;51321;50.428;8.378;2023-06-26T08:39:00;27.40;91.90
64855;DHT22;51321;50.428;8.378;2023-06-26T08:41:40;27.40;92.30
64855;DHT22;51321;50.428;8.378;2023-06-26T08:44:23;27.40;92.00
64855;DHT22;51321;50.428;8.378;2023-06-26T08:47:04;27.50;92.00
64855;DHT22;51321;50.428;8.378;2023-06-26T08:49:49;27.70;91.90
64855;DHT22;51321;50.428;8.378;2023-06-26T08:52:36;27.60;91.40
64855;DHT22;51321;50.428;8.378;2023-06-26T08:55:18;27.60;91.50
64855;DHT22;51321;50.428;8.378;2023-06-26T08:58:01;27.80;91.30
64855;DHT22;51321;50.428;8.378;2023-06-26T09:00:43;27.70;91.00
64855;DHT22;51321;50.428;8.378;2023-06-26T09:03:24;27.70;91.90
64855;DHT22;51321;50.428;8.378;2023-06-26T09:06:05;27.90;91.30
64855;DHT22;51321;50.428;8.378;2023-06-26T09:08:45;28.00;90.50
64855;DHT22;51321;50.428;8.378;2023-06-26T09:11:26;27.80;88.70
64855;DHT22;51321;50.428;8.378;2023-06-26T09:14:07;27.80;89.80
64855;DHT22;51321;50.428;8.378;2023-06-26T09:16:50;28.00;88.70
64855;DHT22;51321;50.428;8.378;2023-06-26T09:19:31;28.30;89.10
64855;DHT22;51321;50.428;8.378;2023-06-26T09:22:13;28.20;87.80
64855;DHT22;51321;50.428;8.378;2023-06-26T09:24:55;28.20;88.60
64855;DHT22;51321;50.428;8.378;2023-06-26T09:27:36;28.00;87.20
64855;DHT22;51321;50.428;8.378;2023-06-26T09:30:17;27.80;86.60
64855;DHT22;51321;50.428;8.378;2023-06-26T09:33:13;27.40;86.10
64855;DHT22;51321;50.428;8.378;2023-06-26T09:35:54;27.10;87.60
64855;DHT22;51321;50.428;8.378;2023-06-26T09:38:35;27.10;88.30
64855;DHT22;51321;50.428;8.378;2023-06-26T09:41:16;27.40;88.80
64855;DHT22;51321;50.428;8.378;2023-06-26T09:44:01;27.80;88.60
64855;DHT22;51321;50.428;8.378;2023-06-26T09:46:45;27.80;87.30
64855;DHT22;51321;50.428;8.378;2023-06-26T09:49:27;27.90;88.80
64855;DHT22;51321;50.428;8.378;2023-06-26T09:52:08;27.70;90.50
64855;DHT22;51321;50.428;8.378;2023-06-26T09:54:49;27.50;90.00
64855;DHT22;51321;50.428;8.378;2023-06-26T09:57:29;27.60;90.30
64855;DHT22;51321;50.428;8.378;2023-06-26T10:00:11;27.60;88.60
64855;DHT22;51321;50.428;8.378;2023-06-26T10:02:52;27.90;87.70
64855;DHT22;51321;50.428;8.378;2023-06-26T10:05:33;28.00;87.30
64855;DHT22;51321;50.428;8.378;2023-06-26T10:08:15;28.00;87.40
64855;DHT22;51321;50.428;8.378;2023-06-26T10:10:57;28.20;87.70
64855;DHT22;51321;50.428;8.378;2023-06-26T10:13:41;28.30;86.40
64855;DHT22;51321;50.428;8.378;2023-06-26T10:16:25;28.20;87.50
64855;DHT22;51321;50.428;8.378;2023-06-26T10:19:08;28.50;88.90
64855;DHT22;51321;50.428;8.378;2023-06-26T10:21:52;28.30;87.40
64855;DHT22;51321;50.428;8.378;2023-06-26T10:24:34;28.50;86.70
64855;DHT22;51321;50.428;8.378;2023-06-26T10:27:17;28.40;87.60
64855;DHT22;51321;50.428;8.378;2023-06-26T10:30:03;28.40;87.60
64855;DHT22;51321;50.428;8.378;2023-06-26T10:32:45;28.40;86.10
64855;DHT22;51321;50.428;8.378;2023-06-26T10:35:27;28.00;87.40
64855;DHT22;51321;50.428;8.378;2023-06-26T10:38:09;27.90;86.80
64855;DHT22;51321;50.428;8.378;2023-06-26T10:40:49;27.80;86.30
64855;DHT22;51321;50.428;8.378;2023-06-26T10:43:30;28.10;87.00
64855;DHT22;51321;50.428;8.378;2023-06-26T10:46:14;28.50;86.70
64855;DHT22;51321;50.428;8.378;2023-06-26T10:48:56;28.70;86.50
64855;DHT22;51321;50.428;8.378;2023-06-26T10:51:38;28.70;85.70
64855;DHT22;51321;50.428;8.378;2023-06-26T10:54:20;28.40;84.90
64855;DHT22;51321;50.428;8.378;2023-06-26T10:57:01;27.90;84.80
64855;DHT22;51321;50.428;8.378;2023-06-26T10:59:42;27.90;86.70
64855;DHT22;51321;50.428;8.378;2023-06-26T11:02:25;27.90;85.90
64855;DHT22;51321;50.428;8.378;2023-06-26T11:05:07;28.00;85.50
64855;DHT22;51321;50.428;8.378;2023-06-26T11:08:02;27.90;86.10
64855;DHT22;51321;50.428;8.378;2023-06-26T11:10:52;28.20;85.40
64855;DHT22;51321;50.428;8.378;2023-06-26T11:13:35;28.40;85.50
64855;DHT22;51321;50.428;8.378;2023-06-26T11:16:16;28.40;86.00
64855;DHT22;51321;50.428;8.378;2023-06-26T11:18:58;28.40;86.20
64855;DHT22;51321;50.428;8.378;2023-06-26T11:21:39;28.10;85.30
64855;DHT22;51321;50.428;8.378;2023-06-26T11:24:19;28.00;85.50
64855;DHT22;51321;50.428;8.378;2023-06-26T11:27:02;27.70;85.20
64855;DHT22;51321;50.428;8.378;2023-06-26T11:29:48;27.80;86.60
64855;DHT22;51321;50.428;8.378;2023-06-26T11:32:29;28.10;84.70
64855;DHT22;51321;50.428;8.378;2023-06-26T11:35:11;28.50;85.10
64855;DHT22;51321;50.428;8.378;2023-06-26T11:37:55;28.70;83.80
64855;DHT22;51321;50.428;8.378;2023-06-26T11:40:36;28.70;82.60
64855;DHT22;51321;50.428;8.378;2023-06-26T11:43:20;28.50;82.60
64855;DHT22;51321;50.428;8.378;2023-06-26T11:46:00;28.40;83.90
64855;DHT22;51321;50.428;8.378;2023-06-26T11:48:41;28.40;84.70
64855;DHT22;51321;50.428;8.378;2023-06-26T11:51:22;28.50;84.00
64855;DHT22;51321;50.428;8.378;2023-06-26T11:54:03;28.30;83.00
64855;DHT22;51321;50.428;8.378;2023-06-26T11:56:43;28.50;84.40
64855;DHT22;51321;50.428;8.378;2023-06-26T11:59:37;29.00;83.20
64855;DHT22;51321;50.428;8.378;2023-06-26T12:02:18;29.30;82.00
64855;DHT22;51321;50.428;8.378;2023-06-26T12:04:59;29.40;81.10
64855;DHT22;51321;50.428;8.378;2023-06-26T12:07:40;29.40;81.50
64855;DHT22;51321;50.428;8.378;2023-06-26T12:10:25;29.50;81.20
64855;DHT22;51321;50.428;8.378;2023-06-26T12:13:07;29.40;80.20
64855;DHT22;51321;50.428;8.378;2023-06-26T12:15:50;29.20;81.00
64855;DHT22;51321;50.428;8.378;2023-06-26T12:18:34;29.20;80.70
64855;DHT22;51321;50.428;8.378;2023-06-26T12:21:44;29.50;80.90
64855;DHT22;51321;50.428;8.378;2023-06-26T12:24:25;29.40;79.80
64855;DHT22;51321;50.428;8.378;2023-06-26T12:27:10;29.40;79.50
64855;DHT22;51321;50.428;8.378;2023-06-26T12:29:53;29.30;79.60
64855;DHT22;51321;50.428;8.378;2023-06-26T12:32:35;28.50;79.30
64855;DHT22;51321;50.428;8.378;2023-06-26T12:35:17;28.00;80.70
64855;DHT22;51321;50.428;8.378;2023-06-26T12:37:57;28.10;82.60
64855;DHT22;51321;50.428;8.378;2023-06-26T12:40:44;28.20;81.30
64855;DHT22;51321;50.428;8.378;2023-06-26T12:43:26;28.50;80.60
64855;DHT22;51321;50.428;8.378;2023-06-26T12:46:07;28.30;80.20
64855;DHT22;51321;50.428;8.378;2023-06-26T12:48:48;28.10;80.70
64855;DHT22;51321;50.428;8.378;2023-06-26T12:51:30;28.20;81.30
64855;DHT22;51321;50.428;8.378;2023-06-26T12:54:11;28.60;80.40
64855;DHT22;51321;50.428;8.378;2023-06-26T12:56:51;28.90;79.30
64855;DHT22;51321;50.428;8.378;2023-06-26T12:59:32;28.80;78.40
64855;DHT22;51321;50.428;8.378;2023-06-26T13:02:13;28.60;77.30
64855;DHT22;51321;50.428;8.378;2023-06-26T13:04:55;28.60;77.90
64855;DHT22;51321;50.428;8.378;2023-06-26T13:07:35;28.70;76.60
64855;DHT22;51321;50.428;8.378;2023-06-26T13:10:16;28.80;76.50
64855;DHT22;51321;50.428;8.378;2023-06-26T13:12:57;28.80;75.70
64855;DHT22;51321;50.428;8.378;2023-06-26T13:15:37;28.90;76.90
64855;DHT22;51321;50.428;8.378;2023-06-26T13:18:18;28.80;76.00
64855;DHT22;51321;50.428;8.378;2023-06-26T13:21:00;28.90;74.90
64855;DHT22;51321;50.428;8.378;2023-06-26T13:23:41;29.00;75.20
64855;DHT22;51321;50.428;8.378;2023-06-26T13:26:22;29.00;74.60
64855;DHT22;51321;50.428;8.378;2023-06-26T13:29:02;29.10;73.90
64855;DHT22;51321;50.428;8.378;2023-06-26T13:31:43;29.30;73.10
64855;DHT22;51321;50.428;8.378;2023-06-26T13:34:24;29.40;71.70
64855;DHT22;51321;50.428;8.378;2023-06-26T13:37:08;29.50;71.10
64855;DHT22;51321;50.428;8.378;2023-06-26T13:39:48;29.30;69.40
64855;DHT22;51321;50.428;8.378;2023-06-26T13:42:30;29.20;69.50
64855;DHT22;51321;50.428;8.378;2023-06-26T13:45:11;29.00;69.80
64855;DHT22;51321;50.428;8.378;2023-06-26T13:47:51;28.70;68.60
64855;DHT22;51321;50.428;8.378;2023-06-26T13:50:32;28.10;68.20
64855;DHT22;51321;50.428;8.378;2023-06-26T13:53:14;27.80;68.60
64855;DHT22;51321;50.428;8.378;2023-06-26T13:55:54;27.50;69.30
64855;DHT22;51321;50.428;8.378;2023-06-26T13:58:36;27.70;69.20
64855;DHT22;51321;50.428;8.378;2023-06-26T14:01:19;27.90;68.80
64855;DHT22;51321;50.428;8.378;2023-06-26T14:04:00;28.00;69.10
64855;DHT22;51321;50.428;8.378;2023-06-26T14:06:40;28.30;68.00
64855;DHT22;51321;50.428;8.378;2023-06-26T14:09:22;28.20;66.60
64855;DHT22;51321;50.428;8.378;2023-06-26T14:12:04;28.20;67.60
64855;DHT22;51321;50.428;8.378;2023-06-26T14:14:45;28.30;66.60
64855;DHT22;51321;50.428;8.378;2023-06-26T14:17:26;28.20;66.10
64855;DHT22;51321;50.428;8.378;2023-06-26T14:20:07;27.90;67.30
64855;DHT22;51321;50.428;8.378;2023-06-26T14:22:51;28.10;64.90
64855;DHT22;51321;50.428;8.378;2023-06-26T14:25:33;28.10;65.40
64855;DHT22;51321;50.428;8.378;2023-06-26T14:28:13;27.80;64.70
64855;DHT22;51321;50.428;8.378;2023-06-26T14:30:54;27.90;65.60
64855;DHT22;51321;50.428;8.378;2023-06-26T14:33:34;27.90;66.40
64855;DHT22;51321;50.428;8.378;2023-06-26T14:36:15;28.10;67.20
64855;DHT22;51321;50.428;8.378;2023-06-26T14:38:56;28.00;67.80
64855;DHT22;51321;50.428;8.378;2023-06-26T14:41:39;28.40;67.30
64855;DHT22;51321;50.428;8.378;2023-06-26T14:44:19;29.10;65.20
64855;DHT22;51321;50.428;8.378;2023-06-26T14:47:00;28.80;65.60
64855;DHT22;51321;50.428;8.378;2023-06-26T14:49:41;28.80;64.30
64855;DHT22;51321;50.428;8.378;2023-06-26T14:52:22;28.90;63.50
64855;DHT22;51321;50.428;8.378;2023-06-26T14:55:02;29.20;63.00
64855;DHT22;51321;50.428;8.378;2023-06-26T14:57:45;29.40;64.50
64855;DHT22;51321;50.428;8.378;2023-06-26T15:00:25;29.80;65.30
64855;DHT22;51321;50.428;8.378;2023-06-26T15:03:06;29.90;63.60
64855;DHT22;51321;50.428;8.378;2023-06-26T15:05:46;29.90;61.50
64855;DHT22;51321;50.428;8.378;2023-06-26T15:08:28;29.80;61.90
64855;DHT22;51321;50.428;8.378;2023-06-26T15:11:08;29.90;61.40
64855;DHT22;51321;50.428;8.378;2023-06-26T15:13:50;29.70;58.90
64855;DHT22;51321;50.428;8.378;2023-06-26T15:16:30;29.70;59.70
64855;DHT22;51321;50.428;8.378;2023-06-26T15:19:11;30.20;60.40
64855;DHT22;51321;50.428;8.378;2023-06-26T15:21:52;30.50;61.20
64855;DHT22;51321;50.428;8.378;2023-06-26T15:24:32;30.70;59.90
64855;DHT22;51321;50.428;8.378;2023-06-26T15:27:13;30.80;60.50
64855;DHT22;51321;50.428;8.378;2023-06-26T15:29:55;30.60;60.00
64855;DHT22;51321;50.428;8.378;2023-06-26T15:32:36;29.80;60.60
64855;DHT22;51321;50.428;8.378;2023-06-26T15:35:16;29.10;59.20
64855;DHT22;51321;50.428;8.378;2023-06-26T15:37:57;28.90;59.10
64855;DHT22;51321;50.428;8.378;2023-06-26T15:40:37;28.30;59.40
64855;DHT22;51321;50.428;8.378;2023-06-26T15:43:18;27.50;62.00
64855;DHT22;51321;50.428;8.378;2023-06-26T15:46:00;27.30;63.40
64855;DHT22;51321;50.428;8.378;2023-06-26T15:48:42;28.00;63.30
64855;DHT22;51321;50.428;8.378;2023-06-26T15:51:22;28.70;63.00
64855;DHT22;51321;50.428;8.378;2023-06-26T15:54:03;29.30;62.20
64855;DHT22;51321;50.428;8.378;2023-06-26T15:56:44;29.70;62.30
64855;DHT22;51321;50.428;8.378;2023-06-26T15:59:26;29.20;62.00
64855;DHT22;51321;50.428;8.378;2023-06-26T16:02:08;28.40;62.50
64855;DHT22;51321;50.428;8.378;2023-06-26T16:04:48;27.60;64.00
64855;DHT22;51321;50.428;8.378;2023-06-26T16:07:29;27.10;65.00
64855;DHT22;51321;50.428;8.378;2023-06-26T16:10:09;26.80;65.30
64855;DHT22;51321;50.428;8.378;2023-06-26T16:12:50;26.50;65.90
64855;DHT22;51321;50.428;8.378;2023-06-26T16:15:31;26.20;66.40
64855;DHT22;51321;50.428;8.378;2023-06-26T16:18:13;26.10;67.70
64855;DHT22;51321;50.428;8.378;2023-06-26T16:20:54;25.80;67.30
64855;DHT22;51321;50.428;8.378;2023-06-26T16:23:34;25.70;67.70
64855;DHT22;51321;50.428;8.378;2023-06-26T16:26:15;25.50;67.60
64855;DHT22;51321;50.428;8.378;2023-06-26T16:28:56;25.50;69.00
64855;DHT22;51321;50.428;8.378;2023-06-26T16:31:37;25.40;67.30
64855;DHT22;51321;50.428;8.378;2023-06-26T16:34:20;25.30;68.20
64855;DHT22;51321;50.428;8.378;2023-06-26T16:37:01;25.20;66.80
64855;DHT22;51321;50.428;8.378;2023-06-26T16:39:46;25.20;67.30
64855;DHT22;51321;50.428;8.378;2023-06-26T16:42:27;25.10;68.20
64855;DHT22;51321;50.428;8.378;2023-06-26T16:45:09;25.00;67.40
64855;DHT22;51321;50.428;8.378;2023-06-26T16:47:49;24.90;67.00
64855;DHT22;51321;50.428;8.378;2023-06-26T16:50:31;24.90;67.80
64855;DHT22;51321;50.428;8.378;2023-06-26T16:53:12;24.80;68.40
64855;DHT22;51321;50.428;8.378;2023-06-26T16:55:53;24.70;68.80
64855;DHT22;51321;50.428;8.378;2023-06-26T16:58:33;24.60;69.20
64855;DHT22;51321;50.428;8.378;2023-06-26T17:01:14;24.60;69.00